sensor_id;sensor_type;location;lat;lon;timestamp;P1;durP1;ratioP1;P2;durP2;ratioP2
51810;SDS011;52468;40.116;18.296;2022-07-06T00:01:10;13.90;;;11.67;;
51810;SDS011;52468;40.116;18.296;2022-07-06T00:03:38;17.53;;;10.57;;
51810;SDS011;52468;40.116;18.296;2022-07-06T00:06:06;13.93;;;11.33;;
51810;SDS011;52468;40.116;18.296;2022-07-06T00:08:34;14.43;;;11.50;;
51810;SDS011;52468;40.116;18.296;2022-07-06T00:11:02;15.77;;;12.63;;
51810;SDS011;52468;40.116;18.296;2022-07-06T00:13:30;16.77;;;11.93;;
51810;SDS011;52468;40.116;18.296;2022-07-06T00:15:58;16.57;;;12.40;;
51810;SDS011;52468;40.116;18.296;2022-07-06T00:18:26;17.80;;;13.00;;
51810;SDS011;52468;40.116;18.296;2022-07-06T00:20:54;17.87;;;12.07;;
51810;SDS011;52468;40.116;18.296;2022-07-06T00:23:23;19.30;;;12.30;;
51810;SDS011;52468;40.116;18.296;2022-07-06T00:25:51;14.33;;;11.70;;
51810;SDS011;52468;40.116;18.296;2022-07-06T00:28:19;12.63;;;9.53;;
51810;SDS011;52468;40.116;18.296;2022-07-06T00:30:47;12.87;;;10.13;;
51810;SDS011;52468;40.116;18.296;2022-07-06T00:33:15;14.63;;;9.87;;
51810;SDS011;52468;40.116;18.296;2022-07-06T00:35:43;11.87;;;8.73;;
51810;SDS011;52468;40.116;18.296;2022-07-06T00:38:11;11.20;;;9.23;;
51810;SDS011;52468;40.116;18.296;2022-07-06T00:40:39;12.60;;;9.33;;
51810;SDS011;52468;40.116;18.296;2022-07-06T00:43:07;13.03;;;9.23;;
51810;SDS011;52468;40.116;18.296;2022-07-06T00:45:35;11.80;;;9.20;;
51810;SDS011;52468;40.116;18.296;2022-07-06T00:48:04;12.80;;;9.37;;
51810;SDS011;52468;40.116;18.296;2022-07-06T00:50:32;10.63;;;7.90;;
51810;SDS011;52468;40.116;18.296;2022-07-06T00:53:02;11.43;;;7.30;;
51810;SDS011;52468;40.116;18.296;2022-07-06T00:55:33;9.57;;;6.80;;
51810;SDS011;52468;40.116;18.296;2022-07-06T00:58:09;12.37;;;8.00;;
51810;SDS011;52468;40.116;18.296;2022-07-06T01:00:38;8.33;;;6.43;;
51810;SDS011;52468;40.116;18.296;2022-07-06T01:03:11;9.50;;;7.10;;
51810;SDS011;52468;40.116;18.296;2022-07-06T01:05:39;9.47;;;6.87;;
51810;SDS011;52468;40.116;18.296;2022-07-06T01:08:07;13.20;;;6.77;;
51810;SDS011;52468;40.116;18.296;2022-07-06T01:10:35;9.80;;;7.13;;
51810;SDS011;52468;40.116;18.296;2022-07-06T01:13:03;9.63;;;6.40;;
51810;SDS011;52468;40.116;18.296;2022-07-06T01:15:32;8.53;;;5.47;;
51810;SDS011;52468;40.116;18.296;2022-07-06T01:18:00;10.50;;;5.70;;
51810;SDS011;52468;40.116;18.296;2022-07-06T01:20:31;13.90;;;6.33;;
51810;SDS011;52468;40.116;18.296;2022-07-06T01:22:59;8.13;;;6.20;;
51810;SDS011;52468;40.116;18.296;2022-07-06T01:25:27;16.47;;;7.27;;
51810;SDS011;52468;40.116;18.296;2022-07-06T01:27:56;10.67;;;6.87;;
51810;SDS011;52468;40.116;18.296;2022-07-06T01:30:24;10.97;;;6.80;;
51810;SDS011;52468;40.116;18.296;2022-07-06T01:32:52;9.17;;;6.27;;
51810;SDS011;52468;40.116;18.296;2022-07-06T01:35:19;9.10;;;7.03;;
51810;SDS011;52468;40.116;18.296;2022-07-06T01:37:49;12.30;;;7.57;;
51810;SDS011;52468;40.116;18.296;2022-07-06T01:40:17;10.77;;;6.80;;
51810;SDS011;52468;40.116;18.296;2022-07-06T01:42:45;8.77;;;7.33;;
51810;SDS011;52468;40.116;18.296;2022-07-06T01:45:13;14.70;;;7.00;;
51810;SDS011;52468;40.116;18.296;2022-07-06T01:47:41;7.97;;;6.63;;
51810;SDS011;52468;40.116;18.296;2022-07-06T01:50:10;10.37;;;6.80;;
51810;SDS011;52468;40.116;18.296;2022-07-06T01:52:42;9.30;;;6.90;;
51810;SDS011;52468;40.116;18.296;2022-07-06T01:55:10;11.73;;;7.30;;
51810;SDS011;52468;40.116;18.296;2022-07-06T01:57:39;7.70;;;6.87;;
51810;SDS011;52468;40.116;18.296;2022-07-06T02:00:09;12.63;;;7.00;;
51810;SDS011;52468;40.116;18.296;2022-07-06T02:02:44;13.60;;;6.23;;
51810;SDS011;52468;40.116;18.296;2022-07-06T02:05:12;13.47;;;6.77;;
51810;SDS011;52468;40.116;18.296;2022-07-06T02:07:40;9.47;;;6.30;;
51810;SDS011;52468;40.116;18.296;2022-07-06T02:10:10;9.27;;;7.07;;
51810;SDS011;52468;40.116;18.296;2022-07-06T02:12:38;12.03;;;6.63;;
51810;SDS011;52468;40.116;18.296;2022-07-06T02:15:06;7.87;;;6.27;;
51810;SDS011;52468;40.116;18.296;2022-07-06T02:17:34;12.80;;;6.30;;
51810;SDS011;52468;40.116;18.296;2022-07-06T02:20:03;9.83;;;7.13;;
51810;SDS011;52468;40.116;18.296;2022-07-06T02:22:31;11.43;;;6.43;;
51810;SDS011;52468;40.116;18.296;2022-07-06T02:25:00;8.00;;;6.60;;
51810;SDS011;52468;40.116;18.296;2022-07-06T02:27:29;10.23;;;7.70;;
51810;SDS011;52468;40.116;18.296;2022-07-06T02:29:58;11.53;;;7.83;;
51810;SDS011;52468;40.116;18.296;2022-07-06T02:32:26;10.23;;;7.33;;
51810;SDS011;52468;40.116;18.296;2022-07-06T02:34:54;13.37;;;8.33;;
51810;SDS011;52468;40.116;18.296;2022-07-06T02:37:22;11.70;;;7.77;;
51810;SDS011;52468;40.116;18.296;2022-07-06T02:39:50;13.83;;;8.03;;
51810;SDS011;52468;40.116;18.296;2022-07-06T02:42:18;18.53;;;7.83;;
51810;SDS011;52468;40.116;18.296;2022-07-06T02:44:46;11.33;;;8.00;;
51810;SDS011;52468;40.116;18.296;2022-07-06T02:47:15;14.13;;;8.60;;
51810;SDS011;52468;40.116;18.296;2022-07-06T02:49:43;10.27;;;7.93;;
51810;SDS011;52468;40.116;18.296;2022-07-06T02:52:11;9.87;;;8.17;;
51810;SDS011;52468;40.116;18.296;2022-07-06T02:54:39;11.67;;;9.43;;
51810;SDS011;52468;40.116;18.296;2022-07-06T02:57:07;11.63;;;9.47;;
51810;SDS011;52468;40.116;18.296;2022-07-06T02:59:35;12.93;;;9.23;;
51810;SDS011;52468;40.116;18.296;2022-07-06T03:02:04;16.97;;;9.77;;
51810;SDS011;52468;40.116;18.296;2022-07-06T03:04:33;9.87;;;8.83;;
51810;SDS011;52468;40.116;18.296;2022-07-06T03:07:01;14.73;;;8.37;;
51810;SDS011;52468;40.116;18.296;2022-07-06T03:09:30;12.77;;;9.23;;
51810;SDS011;52468;40.116;18.296;2022-07-06T03:11:58;12.50;;;10.00;;
51810;SDS011;52468;40.116;18.296;2022-07-06T03:14:29;15.47;;;9.10;;
51810;SDS011;52468;40.116;18.296;2022-07-06T03:16:57;14.87;;;9.77;;
51810;SDS011;52468;40.116;18.296;2022-07-06T03:19:25;11.10;;;8.70;;
51810;SDS011;52468;40.116;18.296;2022-07-06T03:21:53;14.60;;;8.73;;
51810;SDS011;52468;40.116;18.296;2022-07-06T03:24:21;17.07;;;9.43;;
51810;SDS011;52468;40.116;18.296;2022-07-06T03:26:49;12.03;;;8.50;;
51810;SDS011;52468;40.116;18.296;2022-07-06T03:29:18;15.97;;;8.13;;
51810;SDS011;52468;40.116;18.296;2022-07-06T03:31:48;17.67;;;9.73;;
51810;SDS011;52468;40.116;18.296;2022-07-06T03:34:16;15.10;;;8.33;;
51810;SDS011;52468;40.116;18.296;2022-07-06T03:36:44;16.83;;;10.40;;
51810;SDS011;52468;40.116;18.296;2022-07-06T03:39:13;14.30;;;9.23;;
51810;SDS011;52468;40.116;18.296;2022-07-06T03:41:41;21.53;;;8.93;;
51810;SDS011;52468;40.116;18.296;2022-07-06T03:44:10;18.00;;;9.10;;
51810;SDS011;52468;40.116;18.296;2022-07-06T03:46:38;14.87;;;7.97;;
51810;SDS011;52468;40.116;18.296;2022-07-06T03:49:06;15.60;;;8.40;;
51810;SDS011;52468;40.116;18.296;2022-07-06T03:51:34;16.10;;;8.67;;
51810;SDS011;52468;40.116;18.296;2022-07-06T03:54:03;16.40;;;7.33;;
51810;SDS011;52468;40.116;18.296;2022-07-06T03:56:31;16.13;;;7.63;;
51810;SDS011;52468;40.116;18.296;2022-07-06T03:59:08;17.80;;;8.43;;
51810;SDS011;52468;40.116;18.296;2022-07-06T04:01:38;17.17;;;8.00;;
51810;SDS011;52468;40.116;18.296;2022-07-06T04:04:06;14.67;;;6.83;;
51810;SDS011;52468;40.116;18.296;2022-07-06T04:06:36;16.53;;;8.13;;
51810;SDS011;52468;40.116;18.296;2022-07-06T04:09:06;17.47;;;6.63;;
51810;SDS011;52468;40.116;18.296;2022-07-06T04:11:34;13.10;;;5.30;;
51810;SDS011;52468;40.116;18.296;2022-07-06T04:14:03;21.33;;;6.47;;
51810;SDS011;52468;40.116;18.296;2022-07-06T04:16:32;15.90;;;5.40;;
51810;SDS011;52468;40.116;18.296;2022-07-06T04:19:00;14.13;;;5.03;;
51810;SDS011;52468;40.116;18.296;2022-07-06T04:21:28;15.13;;;4.67;;
51810;SDS011;52468;40.116;18.296;2022-07-06T04:23:56;12.57;;;5.53;;
51810;SDS011;52468;40.116;18.296;2022-07-06T04:26:24;15.30;;;5.17;;
51810;SDS011;52468;40.116;18.296;2022-07-06T04:28:53;16.47;;;5.87;;
51810;SDS011;52468;40.116;18.296;2022-07-06T04:31:22;11.83;;;4.63;;
51810;SDS011;52468;40.116;18.296;2022-07-06T04:33:51;12.97;;;4.03;;
51810;SDS011;52468;40.116;18.296;2022-07-06T04:36:19;10.33;;;5.17;;
51810;SDS011;52468;40.116;18.296;2022-07-06T04:38:48;13.10;;;5.73;;
51810;SDS011;52468;40.116;18.296;2022-07-06T04:41:16;11.32;;;4.03;;
51810;SDS011;52468;40.116;18.296;2022-07-06T04:43:44;7.93;;;3.55;;
51810;SDS011;52468;40.116;18.296;2022-07-06T04:46:15;11.25;;;3.83;;
51810;SDS011;52468;40.116;18.296;2022-07-06T04:48:45;13.70;;;3.40;;
51810;SDS011;52468;40.116;18.296;2022-07-06T04:51:20;8.85;;;3.63;;
51810;SDS011;52468;40.116;18.296;2022-07-06T04:53:47;9.60;;;3.72;;
51810;SDS011;52468;40.116;18.296;2022-07-06T04:56:15;10.88;;;3.72;;
51810;SDS011;52468;40.116;18.296;2022-07-06T04:58:43;15.15;;;3.78;;
51810;SDS011;52468;40.116;18.296;2022-07-06T05:01:15;11.20;;;3.13;;
51810;SDS011;52468;40.116;18.296;2022-07-06T05:03:43;10.38;;;3.50;;
51810;SDS011;52468;40.116;18.296;2022-07-06T05:06:13;10.73;;;3.28;;
51810;SDS011;52468;40.116;18.296;2022-07-06T05:08:42;11.25;;;3.60;;
51810;SDS011;52468;40.116;18.296;2022-07-06T05:11:10;12.80;;;3.97;;
51810;SDS011;52468;40.116;18.296;2022-07-06T05:13:38;12.60;;;4.00;;
51810;SDS011;52468;40.116;18.296;2022-07-06T05:16:06;8.63;;;3.55;;
51810;SDS011;52468;40.116;18.296;2022-07-06T05:18:35;10.40;;;4.10;;
51810;SDS011;52468;40.116;18.296;2022-07-06T05:21:04;11.32;;;3.63;;
51810;SDS011;52468;40.116;18.296;2022-07-06T05:23:32;14.80;;;4.95;;
51810;SDS011;52468;40.116;18.296;2022-07-06T05:26:01;29.38;;;4.70;;
51810;SDS011;52468;40.116;18.296;2022-07-06T05:28:30;13.68;;;3.40;;
51810;SDS011;52468;40.116;18.296;2022-07-06T05:31:01;11.32;;;3.50;;
51810;SDS011;52468;40.116;18.296;2022-07-06T05:33:29;12.77;;;3.85;;
51810;SDS011;52468;40.116;18.296;2022-07-06T05:35:58;8.88;;;3.08;;
51810;SDS011;52468;40.116;18.296;2022-07-06T05:38:27;11.00;;;5.03;;
51810;SDS011;52468;40.116;18.296;2022-07-06T05:40:56;9.70;;;3.60;;
51810;SDS011;52468;40.116;18.296;2022-07-06T05:43:23;10.65;;;3.47;;
51810;SDS011;52468;40.116;18.296;2022-07-06T05:45:53;10.10;;;3.78;;
51810;SDS011;52468;40.116;18.296;2022-07-06T05:48:24;17.80;;;3.22;;
51810;SDS011;52468;40.116;18.296;2022-07-06T05:51:11;6.72;;;3.40;;
51810;SDS011;52468;40.116;18.296;2022-07-06T05:53:41;7.35;;;3.05;;
51810;SDS011;52468;40.116;18.296;2022-07-06T05:56:09;10.27;;;3.30;;
51810;SDS011;52468;40.116;18.296;2022-07-06T05:58:38;13.43;;;3.35;;
51810;SDS011;52468;40.116;18.296;2022-07-06T06:01:06;14.82;;;3.25;;
51810;SDS011;52468;40.116;18.296;2022-07-06T06:03:36;9.32;;;3.50;;
51810;SDS011;52468;40.116;18.296;2022-07-06T06:06:05;10.45;;;4.20;;
51810;SDS011;52468;40.116;18.296;2022-07-06T06:08:33;7.47;;;3.25;;
51810;SDS011;52468;40.116;18.296;2022-07-06T06:11:03;9.50;;;2.97;;
51810;SDS011;52468;40.116;18.296;2022-07-06T06:13:35;9.63;;;4.00;;
51810;SDS011;52468;40.116;18.296;2022-07-06T06:16:03;13.82;;;3.75;;
51810;SDS011;52468;40.116;18.296;2022-07-06T06:18:31;9.65;;;2.85;;
51810;SDS011;52468;40.116;18.296;2022-07-06T06:21:02;11.60;;;3.25;;
51810;SDS011;52468;40.116;18.296;2022-07-06T06:23:30;8.73;;;3.60;;
51810;SDS011;52468;40.116;18.296;2022-07-06T06:25:57;11.07;;;4.20;;
51810;SDS011;52468;40.116;18.296;2022-07-06T06:28:25;12.48;;;3.38;;
51810;SDS011;52468;40.116;18.296;2022-07-06T06:30:53;8.75;;;3.58;;
51810;SDS011;52468;40.116;18.296;2022-07-06T06:33:21;9.68;;;3.58;;
51810;SDS011;52468;40.116;18.296;2022-07-06T06:35:52;10.13;;;3.92;;
51810;SDS011;52468;40.116;18.296;2022-07-06T06:38:21;10.60;;;3.43;;
51810;SDS011;52468;40.116;18.296;2022-07-06T06:40:53;9.15;;;5.25;;
51810;SDS011;52468;40.116;18.296;2022-07-06T06:43:21;8.57;;;3.65;;
51810;SDS011;52468;40.116;18.296;2022-07-06T06:46:00;11.52;;;3.58;;
51810;SDS011;52468;40.116;18.296;2022-07-06T06:48:28;6.22;;;3.15;;
51810;SDS011;52468;40.116;18.296;2022-07-06T06:50:58;8.20;;;4.45;;
51810;SDS011;52468;40.116;18.296;2022-07-06T06:53:26;11.85;;;3.78;;
51810;SDS011;52468;40.116;18.296;2022-07-06T06:55:54;10.68;;;3.20;;
51810;SDS011;52468;40.116;18.296;2022-07-06T06:58:21;7.50;;;3.50;;
51810;SDS011;52468;40.116;18.296;2022-07-06T07:00:49;10.25;;;2.97;;
51810;SDS011;52468;40.116;18.296;2022-07-06T07:03:18;12.48;;;4.38;;
51810;SDS011;52468;40.116;18.296;2022-07-06T07:05:46;10.35;;;3.92;;
51810;SDS011;52468;40.116;18.296;2022-07-06T07:08:15;11.35;;;3.78;;
51810;SDS011;52468;40.116;18.296;2022-07-06T07:10:43;7.45;;;3.35;;
51810;SDS011;52468;40.116;18.296;2022-07-06T07:13:11;13.48;;;3.97;;
51810;SDS011;52468;40.116;18.296;2022-07-06T07:15:38;12.85;;;3.90;;
51810;SDS011;52468;40.116;18.296;2022-07-06T07:18:06;11.10;;;3.88;;
51810;SDS011;52468;40.116;18.296;2022-07-06T07:20:37;9.88;;;4.40;;
51810;SDS011;52468;40.116;18.296;2022-07-06T07:23:04;6.13;;;4.45;;
51810;SDS011;52468;40.116;18.296;2022-07-06T07:25:32;7.25;;;3.88;;
51810;SDS011;52468;40.116;18.296;2022-07-06T07:28:00;9.77;;;4.65;;
51810;SDS011;52468;40.116;18.296;2022-07-06T07:30:28;11.50;;;4.35;;
51810;SDS011;52468;40.116;18.296;2022-07-06T07:32:56;13.52;;;4.03;;
51810;SDS011;52468;40.116;18.296;2022-07-06T07:35:24;16.20;;;5.25;;
51810;SDS011;52468;40.116;18.296;2022-07-06T07:37:51;8.43;;;4.50;;
51810;SDS011;52468;40.116;18.296;2022-07-06T07:40:20;10.32;;;3.80;;
51810;SDS011;52468;40.116;18.296;2022-07-06T07:42:48;7.18;;;4.05;;
51810;SDS011;52468;40.116;18.296;2022-07-06T07:45:16;10.40;;;4.80;;
51810;SDS011;52468;40.116;18.296;2022-07-06T07:47:44;10.57;;;4.40;;
51810;SDS011;52468;40.116;18.296;2022-07-06T07:50:12;11.77;;;4.30;;
51810;SDS011;52468;40.116;18.296;2022-07-06T07:52:40;12.65;;;4.03;;
51810;SDS011;52468;40.116;18.296;2022-07-06T07:55:08;10.55;;;5.50;;
51810;SDS011;52468;40.116;18.296;2022-07-06T07:57:56;12.88;;;4.05;;
51810;SDS011;52468;40.116;18.296;2022-07-06T08:00:24;10.10;;;4.00;;
51810;SDS011;52468;40.116;18.296;2022-07-06T08:02:54;8.00;;;4.22;;
51810;SDS011;52468;40.116;18.296;2022-07-06T08:05:22;8.18;;;3.65;;
51810;SDS011;52468;40.116;18.296;2022-07-06T08:07:49;12.00;;;4.78;;
51810;SDS011;52468;40.116;18.296;2022-07-06T08:10:18;11.68;;;4.22;;
51810;SDS011;52468;40.116;18.296;2022-07-06T08:12:47;6.80;;;4.65;;
51810;SDS011;52468;40.116;18.296;2022-07-06T08:15:15;12.00;;;4.57;;
51810;SDS011;52468;40.116;18.296;2022-07-06T08:17:43;9.88;;;4.07;;
51810;SDS011;52468;40.116;18.296;2022-07-06T08:20:12;13.50;;;4.65;;
51810;SDS011;52468;40.116;18.296;2022-07-06T08:22:41;9.70;;;5.07;;
51810;SDS011;52468;40.116;18.296;2022-07-06T08:25:09;11.15;;;4.95;;
51810;SDS011;52468;40.116;18.296;2022-07-06T08:27:37;13.43;;;4.78;;
51810;SDS011;52468;40.116;18.296;2022-07-06T08:30:05;11.07;;;4.43;;
51810;SDS011;52468;40.116;18.296;2022-07-06T08:32:36;7.78;;;5.05;;
51810;SDS011;52468;40.116;18.296;2022-07-06T08:35:25;9.27;;;4.05;;
51810;SDS011;52468;40.116;18.296;2022-07-06T08:37:54;10.02;;;3.85;;
51810;SDS011;52468;40.116;18.296;2022-07-06T08:40:21;10.25;;;5.00;;
51810;SDS011;52468;40.116;18.296;2022-07-06T08:42:52;8.10;;;4.07;;
51810;SDS011;52468;40.116;18.296;2022-07-06T08:45:21;11.52;;;4.60;;
51810;SDS011;52468;40.116;18.296;2022-07-06T08:47:49;8.27;;;4.43;;
51810;SDS011;52468;40.116;18.296;2022-07-06T08:50:17;10.65;;;4.43;;
51810;SDS011;52468;40.116;18.296;2022-07-06T08:52:47;9.82;;;4.90;;
51810;SDS011;52468;40.116;18.296;2022-07-06T08:55:17;11.30;;;5.65;;
51810;SDS011;52468;40.116;18.296;2022-07-06T08:57:47;8.30;;;4.43;;
51810;SDS011;52468;40.116;18.296;2022-07-06T09:00:16;9.48;;;4.28;;
51810;SDS011;52468;40.116;18.296;2022-07-06T09:02:44;8.18;;;3.60;;
51810;SDS011;52468;40.116;18.296;2022-07-06T09:05:13;13.60;;;4.10;;
51810;SDS011;52468;40.116;18.296;2022-07-06T09:07:43;9.77;;;3.63;;
51810;SDS011;52468;40.116;18.296;2022-07-06T09:10:24;8.10;;;3.58;;
51810;SDS011;52468;40.116;18.296;2022-07-06T09:12:53;6.55;;;3.35;;
51810;SDS011;52468;40.116;18.296;2022-07-06T09:15:30;10.38;;;4.43;;
51810;SDS011;52468;40.116;18.296;2022-07-06T09:17:59;11.70;;;4.03;;
51810;SDS011;52468;40.116;18.296;2022-07-06T09:20:28;5.68;;;3.30;;
51810;SDS011;52468;40.116;18.296;2022-07-06T09:22:57;9.02;;;4.05;;
51810;SDS011;52468;40.116;18.296;2022-07-06T09:25:27;7.07;;;3.78;;
51810;SDS011;52468;40.116;18.296;2022-07-06T09:27:56;9.98;;;4.07;;
51810;SDS011;52468;40.116;18.296;2022-07-06T09:30:25;9.75;;;4.65;;
51810;SDS011;52468;40.116;18.296;2022-07-06T09:32:55;10.13;;;4.72;;
51810;SDS011;52468;40.116;18.296;2022-07-06T09:38:05;6.45;;;3.22;;
51810;SDS011;52468;40.116;18.296;2022-07-06T09:40:37;7.72;;;3.92;;
51810;SDS011;52468;40.116;18.296;2022-07-06T09:43:10;10.25;;;4.18;;
51810;SDS011;52468;40.116;18.296;2022-07-06T09:45:43;7.82;;;4.03;;
51810;SDS011;52468;40.116;18.296;2022-07-06T09:48:21;10.18;;;3.72;;
51810;SDS011;52468;40.116;18.296;2022-07-06T09:53:26;6.75;;;3.63;;
51810;SDS011;52468;40.116;18.296;2022-07-06T09:55:55;11.20;;;4.50;;
51810;SDS011;52468;40.116;18.296;2022-07-06T09:58:25;8.45;;;3.80;;
51810;SDS011;52468;40.116;18.296;2022-07-06T10:00:58;9.15;;;4.00;;
51810;SDS011;52468;40.116;18.296;2022-07-06T10:03:26;8.70;;;3.88;;
51810;SDS011;52468;40.116;18.296;2022-07-06T10:05:54;9.30;;;4.50;;
51810;SDS011;52468;40.116;18.296;2022-07-06T10:08:23;9.93;;;3.88;;
51810;SDS011;52468;40.116;18.296;2022-07-06T10:10:54;6.80;;;4.32;;
51810;SDS011;52468;40.116;18.296;2022-07-06T10:13:22;9.23;;;4.20;;
51810;SDS011;52468;40.116;18.296;2022-07-06T10:15:52;10.13;;;3.92;;
51810;SDS011;52468;40.116;18.296;2022-07-06T10:18:21;7.68;;;4.45;;
51810;SDS011;52468;40.116;18.296;2022-07-06T10:20:49;5.85;;;3.55;;
51810;SDS011;52468;40.116;18.296;2022-07-06T10:23:17;8.40;;;3.47;;
51810;SDS011;52468;40.116;18.296;2022-07-06T10:25:45;8.50;;;4.00;;
51810;SDS011;52468;40.116;18.296;2022-07-06T10:28:14;11.40;;;4.22;;
51810;SDS011;52468;40.116;18.296;2022-07-06T10:30:44;15.60;;;4.43;;
51810;SDS011;52468;40.116;18.296;2022-07-06T10:33:13;12.80;;;4.57;;
51810;SDS011;52468;40.116;18.296;2022-07-06T10:35:43;9.85;;;4.25;;
51810;SDS011;52468;40.116;18.296;2022-07-06T10:38:11;6.15;;;3.67;;
51810;SDS011;52468;40.116;18.296;2022-07-06T10:40:40;8.38;;;3.30;;
51810;SDS011;52468;40.116;18.296;2022-07-06T10:43:31;8.02;;;4.47;;
51810;SDS011;52468;40.116;18.296;2022-07-06T10:48:41;7.75;;;3.83;;
51810;SDS011;52468;40.116;18.296;2022-07-06T10:51:22;5.22;;;3.38;;
51810;SDS011;52468;40.116;18.296;2022-07-06T10:54:01;10.02;;;3.50;;
51810;SDS011;52468;40.116;18.296;2022-07-06T10:56:33;9.52;;;3.97;;
51810;SDS011;52468;40.116;18.296;2022-07-06T10:59:09;16.05;;;4.43;;
51810;SDS011;52468;40.116;18.296;2022-07-06T11:02:10;8.98;;;5.15;;
51810;SDS011;52468;40.116;18.296;2022-07-06T11:04:49;5.50;;;4.15;;
51810;SDS011;52468;40.116;18.296;2022-07-06T11:07:18;10.05;;;3.65;;
51810;SDS011;52468;40.116;18.296;2022-07-06T11:09:56;13.98;;;3.97;;
51810;SDS011;52468;40.116;18.296;2022-07-06T11:12:26;6.75;;;3.53;;
51810;SDS011;52468;40.116;18.296;2022-07-06T11:14:54;7.18;;;3.28;;
51810;SDS011;52468;40.116;18.296;2022-07-06T11:17:22;8.23;;;3.90;;
51810;SDS011;52468;40.116;18.296;2022-07-06T11:19:54;9.43;;;3.97;;
51810;SDS011;52468;40.116;18.296;2022-07-06T11:22:24;17.08;;;4.18;;
51810;SDS011;52468;40.116;18.296;2022-07-06T11:24:54;10.55;;;4.28;;
51810;SDS011;52468;40.116;18.296;2022-07-06T11:27:24;5.53;;;3.22;;
51810;SDS011;52468;40.116;18.296;2022-07-06T11:29:52;10.23;;;3.65;;
51810;SDS011;52468;40.116;18.296;2022-07-06T11:32:25;7.15;;;3.33;;
51810;SDS011;52468;40.116;18.296;2022-07-06T11:37:21;8.30;;;4.18;;
51810;SDS011;52468;40.116;18.296;2022-07-06T11:39:50;10.65;;;4.28;;
51810;SDS011;52468;40.116;18.296;2022-07-06T11:42:18;7.20;;;3.60;;
51810;SDS011;52468;40.116;18.296;2022-07-06T11:44:46;6.00;;;3.63;;
51810;SDS011;52468;40.116;18.296;2022-07-06T11:47:14;7.60;;;3.60;;
51810;SDS011;52468;40.116;18.296;2022-07-06T11:49:48;11.05;;;3.83;;
51810;SDS011;52468;40.116;18.296;2022-07-06T11:52:17;7.63;;;3.92;;
51810;SDS011;52468;40.116;18.296;2022-07-06T11:54:45;6.78;;;3.30;;
51810;SDS011;52468;40.116;18.296;2022-07-06T11:57:13;6.28;;;2.85;;
51810;SDS011;52468;40.116;18.296;2022-07-06T11:59:41;10.30;;;4.50;;
51810;SDS011;52468;40.116;18.296;2022-07-06T12:02:16;6.13;;;3.08;;
51810;SDS011;52468;40.116;18.296;2022-07-06T12:04:45;4.27;;;3.17;;
51810;SDS011;52468;40.116;18.296;2022-07-06T12:07:14;7.35;;;3.63;;
51810;SDS011;52468;40.116;18.296;2022-07-06T12:09:44;7.63;;;3.10;;
51810;SDS011;52468;40.116;18.296;2022-07-06T12:12:13;7.57;;;3.42;;
51810;SDS011;52468;40.116;18.296;2022-07-06T12:14:43;5.82;;;3.35;;
51810;SDS011;52468;40.116;18.296;2022-07-06T12:17:12;8.60;;;3.83;;
51810;SDS011;52468;40.116;18.296;2022-07-06T12:19:41;11.68;;;3.80;;
51810;SDS011;52468;40.116;18.296;2022-07-06T12:22:10;8.80;;;3.03;;
51810;SDS011;52468;40.116;18.296;2022-07-06T12:24:41;8.95;;;3.15;;
51810;SDS011;52468;40.116;18.296;2022-07-06T12:27:12;8.05;;;3.72;;
51810;SDS011;52468;40.116;18.296;2022-07-06T12:29:41;8.30;;;3.17;;
51810;SDS011;52468;40.116;18.296;2022-07-06T12:32:19;5.20;;;2.95;;
51810;SDS011;52468;40.116;18.296;2022-07-06T12:35:08;5.53;;;3.22;;
51810;SDS011;52468;40.116;18.296;2022-07-06T12:37:38;7.88;;;3.45;;
51810;SDS011;52468;40.116;18.296;2022-07-06T12:40:21;9.20;;;3.47;;
51810;SDS011;52468;40.116;18.296;2022-07-06T12:42:54;3.90;;;2.30;;
51810;SDS011;52468;40.116;18.296;2022-07-06T12:45:26;9.32;;;3.05;;
51810;SDS011;52468;40.116;18.296;2022-07-06T12:48:01;5.15;;;2.75;;
51810;SDS011;52468;40.116;18.296;2022-07-06T12:50:35;6.18;;;3.05;;
51810;SDS011;52468;40.116;18.296;2022-07-06T12:53:05;8.68;;;3.03;;
51810;SDS011;52468;40.116;18.296;2022-07-06T12:56:07;8.60;;;3.65;;
51810;SDS011;52468;40.116;18.296;2022-07-06T12:58:37;6.57;;;3.25;;
51810;SDS011;52468;40.116;18.296;2022-07-06T13:01:05;7.53;;;2.75;;
51810;SDS011;52468;40.116;18.296;2022-07-06T13:03:40;8.55;;;3.70;;
51810;SDS011;52468;40.116;18.296;2022-07-06T13:06:09;7.68;;;2.65;;
51810;SDS011;52468;40.116;18.296;2022-07-06T13:08:36;8.52;;;4.28;;
51810;SDS011;52468;40.116;18.296;2022-07-06T13:11:06;6.78;;;2.63;;
51810;SDS011;52468;40.116;18.296;2022-07-06T13:13:42;12.13;;;4.03;;
51810;SDS011;52468;40.116;18.296;2022-07-06T13:16:11;4.90;;;2.50;;
51810;SDS011;52468;40.116;18.296;2022-07-06T13:18:39;5.97;;;3.03;;
51810;SDS011;52468;40.116;18.296;2022-07-06T13:21:07;8.35;;;2.97;;
51810;SDS011;52468;40.116;18.296;2022-07-06T13:23:34;5.70;;;2.92;;
51810;SDS011;52468;40.116;18.296;2022-07-06T13:26:02;8.63;;;3.35;;
51810;SDS011;52468;40.116;18.296;2022-07-06T13:28:30;5.22;;;2.60;;
51810;SDS011;52468;40.116;18.296;2022-07-06T13:30:58;6.10;;;3.40;;
51810;SDS011;52468;40.116;18.296;2022-07-06T13:33:26;8.70;;;2.72;;
51810;SDS011;52468;40.116;18.296;2022-07-06T13:35:54;5.05;;;2.53;;
51810;SDS011;52468;40.116;18.296;2022-07-06T13:38:22;4.95;;;2.35;;
51810;SDS011;52468;40.116;18.296;2022-07-06T13:40:50;5.30;;;2.97;;
51810;SDS011;52468;40.116;18.296;2022-07-06T13:43:18;6.82;;;2.67;;
51810;SDS011;52468;40.116;18.296;2022-07-06T13:45:46;5.82;;;3.13;;
51810;SDS011;52468;40.116;18.296;2022-07-06T13:48:15;7.68;;;2.53;;
51810;SDS011;52468;40.116;18.296;2022-07-06T13:50:43;5.10;;;2.65;;
51810;SDS011;52468;40.116;18.296;2022-07-06T13:53:10;6.82;;;2.88;;
51810;SDS011;52468;40.116;18.296;2022-07-06T13:55:38;2.83;;;1.88;;
51810;SDS011;52468;40.116;18.296;2022-07-06T13:58:06;10.15;;;2.47;;
51810;SDS011;52468;40.116;18.296;2022-07-06T14:00:35;6.57;;;2.60;;
51810;SDS011;52468;40.116;18.296;2022-07-06T14:03:03;4.90;;;1.90;;
51810;SDS011;52468;40.116;18.296;2022-07-06T14:05:31;5.43;;;2.58;;
51810;SDS011;52468;40.116;18.296;2022-07-06T14:07:59;7.30;;;2.40;;
51810;SDS011;52468;40.116;18.296;2022-07-06T14:10:27;3.33;;;2.00;;
51810;SDS011;52468;40.116;18.296;2022-07-06T14:12:55;6.72;;;2.08;;
51810;SDS011;52468;40.116;18.296;2022-07-06T14:15:23;6.78;;;1.92;;
51810;SDS011;52468;40.116;18.296;2022-07-06T14:17:51;4.63;;;2.42;;
51810;SDS011;52468;40.116;18.296;2022-07-06T14:20:19;8.07;;;2.85;;
51810;SDS011;52468;40.116;18.296;2022-07-06T14:22:47;4.93;;;2.10;;
51810;SDS011;52468;40.116;18.296;2022-07-06T14:25:15;4.95;;;1.85;;
51810;SDS011;52468;40.116;18.296;2022-07-06T14:27:42;6.80;;;2.95;;
51810;SDS011;52468;40.116;18.296;2022-07-06T14:30:11;4.57;;;1.90;;
51810;SDS011;52468;40.116;18.296;2022-07-06T14:32:39;10.50;;;2.35;;
51810;SDS011;52468;40.116;18.296;2022-07-06T14:35:07;5.28;;;2.05;;
51810;SDS011;52468;40.116;18.296;2022-07-06T14:37:35;5.05;;;2.13;;
51810;SDS011;52468;40.116;18.296;2022-07-06T14:40:03;4.22;;;2.22;;
51810;SDS011;52468;40.116;18.296;2022-07-06T14:42:31;6.95;;;2.53;;
51810;SDS011;52468;40.116;18.296;2022-07-06T14:44:59;4.57;;;1.73;;
51810;SDS011;52468;40.116;18.296;2022-07-06T14:47:27;7.70;;;2.50;;
51810;SDS011;52468;40.116;18.296;2022-07-06T14:49:55;6.38;;;1.90;;
51810;SDS011;52468;40.116;18.296;2022-07-06T14:52:23;3.65;;;1.92;;